NCAR-RAP Real-Time Weather Data

Output produced by METARs form (17 January 2018  22:28 UTC)
found at http://weather.rap.ucar.edu/surface/
 
Conditions at: KISM observed 17 January 2018  21:56 UTC
Temperature: 16.7°C (62°F)
Dewpoint: 8.9°C (48°F) [RH = 60%]
Pressure (altimeter): 30.21 inches Hg (1023.1 mb)
[Sea-level pressure: 1023.4 mb]
Winds: from the WNW (300 degrees) at 15 MPH (13 knots; 6.8 m/s)
gusting to 22 MPH (19 knots; 9.9 m/s)
Visibility: 10 or more miles (16+ km)
Ceiling: at least 12,000 feet AGL
Clouds: sky clear below 12,000 feet AGL
Present Weather: no significant weather observed at this time
KISM 172156Z 30013G19KT 10SM CLR 17/09 A3021 RMK AO2 SLP234 T01670089

Conditions at: KISM observed 17 January 2018  20:56 UTC
Temperature: 21.1°C (70°F)
Dewpoint: 8.9°C (48°F) [RH = 46%]
Pressure (altimeter): 30.18 inches Hg (1022.1 mb)
[Sea-level pressure: 1022.1 mb]
Winds: from the WNW (300 degrees) at 14 MPH (12 knots; 6.2 m/s)
Visibility: 10 or more miles (16+ km)
Ceiling: 5500 feet AGL
Clouds: broken clouds at 5500 feet AGL
Present Weather: no significant weather observed at this time
KISM 172056Z 30012KT 10SM BKN055 21/09 A3018 RMK AO2 SLP221 T02110089 55014

Conditions at: KISM observed 17 January 2018  19:56 UTC
Temperature: 21.1°C (70°F)
Dewpoint: 8.3°C (47°F) [RH = 44%]
Pressure (altimeter): 30.18 inches Hg (1022.1 mb)
[Sea-level pressure: 1022.1 mb]
Winds: from the WNW (290 degrees) at 9 MPH (8 knots; 4.2 m/s)
gusting to 18 MPH (16 knots; 8.3 m/s)
Visibility: 10 or more miles (16+ km)
Ceiling: 5500 feet AGL
Clouds: broken clouds at 5500 feet AGL
Present Weather: no significant weather observed at this time
KISM 171956Z 29008G16KT 10SM BKN055 21/08 A3018 RMK AO2 SLP221 T02110083

Conditions at: KISM observed 17 January 2018  18:56 UTC
Temperature: 21.7°C (71°F)
Dewpoint: 7.8°C (46°F) [RH = 41%]
Pressure (altimeter): 30.19 inches Hg (1022.4 mb)
[Sea-level pressure: 1022.5 mb]
Winds: from the WNW (290 degrees) at 12 MPH (10 knots; 5.2 m/s)
Visibility: 10 or more miles (16+ km)
Ceiling: at least 12,000 feet AGL
Clouds: sky clear below 12,000 feet AGL
Present Weather: no significant weather observed at this time
KISM 171856Z 29010KT 10SM CLR 22/08 A3019 RMK AO2 SLP225 T02170078

Conditions at: KISM observed 17 January 2018  17:56 UTC
Temperature: 21.1°C (70°F)
Dewpoint: 8.3°C (47°F) [RH = 44%]
Pressure (altimeter): 30.22 inches Hg (1023.5 mb)
[Sea-level pressure: 1023.6 mb]
Winds: from the NW (310 degrees) at 15 MPH (13 knots; 6.8 m/s)
Visibility: 10 or more miles (16+ km)
Ceiling: at least 12,000 feet AGL
Clouds: sky clear below 12,000 feet AGL
Present Weather: no significant weather observed at this time
KISM 171756Z 31013KT 10SM CLR 21/08 A3022 RMK AO2 SLP236 T02110083 10211 20083 58022

Conditions at: KISM observed 17 January 2018  16:56 UTC
Temperature: 20.0°C (68°F)
Dewpoint: 8.3°C (47°F) [RH = 47%]
Pressure (altimeter): 30.26 inches Hg (1024.8 mb)
[Sea-level pressure: 1024.9 mb]
Winds: from the NW (310 degrees) at 10 MPH (9 knots; 4.7 m/s)
Visibility: 10 or more miles (16+ km)
Ceiling: at least 12,000 feet AGL
Clouds: sky clear below 12,000 feet AGL
Present Weather: no significant weather observed at this time
KISM 171656Z 31009KT 10SM CLR 20/08 A3026 RMK AO2 SLP249 T02000083

Conditions at: KISM observed 17 January 2018  15:56 UTC
Temperature: 18.3°C (65°F)
Dewpoint: 10.0°C (50°F) [RH = 58%]
Pressure (altimeter): 30.28 inches Hg (1025.5 mb)
[Sea-level pressure: 1025.6 mb]
Winds: from the W (270 degrees) at 7 MPH (6 knots; 3.1 m/s)
Visibility: 10 or more miles (16+ km)
Ceiling: at least 12,000 feet AGL
Clouds: sky clear below 12,000 feet AGL
Present Weather: no significant weather observed at this time
KISM 171556Z 27006KT 10SM CLR 18/10 A3028 RMK AO2 SLP256 T01830100

Conditions at: KISM observed 17 January 2018  14:56 UTC
Temperature: 15.6°C (60°F)
Dewpoint: 10.0°C (50°F) [RH = 69%]
Pressure (altimeter): 30.28 inches Hg (1025.5 mb)
[Sea-level pressure: 1025.8 mb]
Winds: calm
Visibility: 10 or more miles (16+ km)
Ceiling: at least 12,000 feet AGL
Clouds: sky clear below 12,000 feet AGL
Present Weather: no significant weather observed at this time
KISM 171456Z 00000KT 10SM CLR 16/10 A3028 RMK AO2 SLP258 T01560100 51007

Conditions at: KISM observed 17 January 2018  13:56 UTC
Temperature: 13.3°C (56°F)
Dewpoint: 10.0°C (50°F) [RH = 80%]
Pressure (altimeter): 30.28 inches Hg (1025.5 mb)
[Sea-level pressure: 1025.6 mb]
Winds: from the NE (50 degrees) at 3 MPH (3 knots; 1.6 m/s)
Visibility: 10 or more miles (16+ km)
Ceiling: at least 12,000 feet AGL
Clouds: sky clear below 12,000 feet AGL
Present Weather: no significant weather observed at this time
KISM 171356Z 05003KT 10SM CLR 13/10 A3028 RMK AO2 SLP256 T01330100

Conditions at: KISM observed 17 January 2018  12:56 UTC
Temperature: 9.4°C (49°F)
Dewpoint: 8.9°C (48°F) [RH = 97%]
Pressure (altimeter): 30.27 inches Hg (1025.1 mb)
[Sea-level pressure: 1025.4 mb]
Winds: calm
Visibility: 10 or more miles (16+ km)
Ceiling: at least 12,000 feet AGL
Clouds: sky clear below 12,000 feet AGL
Present Weather: no significant weather observed at this time
KISM 171256Z 00000KT 10SM CLR 09/09 A3027 RMK AO2 SLP254 T00940089

Conditions at: KISM observed 17 January 2018  11:56 UTC
Temperature: 8.9°C (48°F)
Dewpoint: 8.3°C (47°F) [RH = 96%]
Pressure (altimeter): 30.26 inches Hg (1024.8 mb)
[Sea-level pressure: 1025.0 mb]
Winds: from the NW (320 degrees) at 5 MPH (4 knots; 2.1 m/s)
Visibility: 10 or more miles (16+ km)
Ceiling: at least 12,000 feet AGL
Clouds: sky clear below 12,000 feet AGL
Present Weather: no significant weather observed at this time
KISM 171156Z 32004KT 10SM CLR 09/08 A3026 RMK AO2 SLP250 T00890083 10117 20083 53008

Conditions at: KISM observed 17 January 2018  10:56 UTC
Temperature: 8.9°C (48°F)
Dewpoint: 8.3°C (47°F) [RH = 96%]
Pressure (altimeter): 30.25 inches Hg (1024.5 mb)
[Sea-level pressure: 1024.6 mb]
Winds: from the NW (310 degrees) at 7 MPH (6 knots; 3.1 m/s)
Visibility: 10 or more miles (16+ km)
Ceiling: at least 12,000 feet AGL
Clouds: sky clear below 12,000 feet AGL
Present Weather: automated observation with no human augmentation;
there may or may not be significant weather present at this time
KISM 171056Z AUTO 31006KT 10SM CLR 09/08 A3025 RMK AO2 SLP246 T00890083

Conditions at: KISM observed 17 January 2018  09:56 UTC
Temperature: 9.4°C (49°F)
Dewpoint: 8.9°C (48°F) [RH = 97%]
Pressure (altimeter): 30.24 inches Hg (1024.1 mb)
[Sea-level pressure: 1024.2 mb]
Winds: calm
Visibility: 10 or more miles (16+ km)
Ceiling: at least 12,000 feet AGL
Clouds: sky clear below 12,000 feet AGL
Present Weather: automated observation with no human augmentation;
there may or may not be significant weather present at this time
KISM 170956Z AUTO 00000KT 10SM CLR 09/09 A3024 RMK AO2 SLP242 T00940089

Conditions at: KISM observed 17 January 2018  08:56 UTC
Temperature: 10.0°C (50°F)
Dewpoint: 8.9°C (48°F) [RH = 93%]
Pressure (altimeter): 30.24 inches Hg (1024.1 mb)
[Sea-level pressure: 1024.2 mb]
Winds: calm
Visibility: 10 or more miles (16+ km)
Ceiling: at least 12,000 feet AGL
Clouds: sky clear below 12,000 feet AGL
Present Weather: automated observation with no human augmentation;
there may or may not be significant weather present at this time
KISM 170856Z AUTO 00000KT 10SM CLR 10/09 A3024 RMK AO2 SLP242 T01000089 56012 TSNO

Conditions at: KISM observed 17 January 2018  07:56 UTC
Temperature: 11.1°C (52°F)
Dewpoint: 10.6°C (51°F) [RH = 97%]
Pressure (altimeter): 30.25 inches Hg (1024.5 mb)
[Sea-level pressure: 1024.5 mb]
Winds: from the N (10 degrees) at 6 MPH (5 knots; 2.6 m/s)
Visibility: 10 or more miles (16+ km)
Ceiling: at least 12,000 feet AGL
Clouds: sky clear below 12,000 feet AGL
Present Weather: automated observation with no human augmentation;
there may or may not be significant weather present at this time
KISM 170756Z AUTO 01005KT 10SM CLR 11/11 A3025 RMK AO2 SLP245 T01110106

Conditions at: KISM observed 17 January 2018  06:56 UTC
Temperature: 10.6°C (51°F)
Dewpoint: 10.0°C (50°F) [RH = 96%]
Pressure (altimeter): 30.26 inches Hg (1024.8 mb)
[Sea-level pressure: 1024.8 mb]
Winds: calm
Visibility: 10 or more miles (16+ km)
Ceiling: at least 12,000 feet AGL
Clouds: sky clear below 12,000 feet AGL
Present Weather: automated observation with no human augmentation;
there may or may not be significant weather present at this time
KISM 170656Z AUTO 00000KT 10SM CLR 11/10 A3026 RMK AO2 SLP248 T01060100

Conditions at: KISM observed 17 January 2018  05:56 UTC
Temperature: 11.7°C (53°F)
Dewpoint: 10.6°C (51°F) [RH = 93%]
Pressure (altimeter): 30.27 inches Hg (1025.1 mb)
[Sea-level pressure: 1025.4 mb]
Winds: from the NNE (20 degrees) at 5 MPH (4 knots; 2.1 m/s)
Visibility: 10 or more miles (16+ km)
Ceiling: at least 12,000 feet AGL
Clouds: sky clear below 12,000 feet AGL
Present Weather: automated observation with no human augmentation;
there may or may not be significant weather present at this time
KISM 170556Z AUTO 02004KT 10SM CLR 12/11 A3027 RMK AO2 SLP254 T01170106 10172 20111 58015

Conditions at: KISM observed 17 January 2018  04:56 UTC
Temperature: 12.2°C (54°F)
Dewpoint: 11.1°C (52°F) [RH = 93%]
Pressure (altimeter): 30.29 inches Hg (1025.8 mb)
[Sea-level pressure: 1026.1 mb]
Winds: from the N (360 degrees) at 5 MPH (4 knots; 2.1 m/s)
Visibility: 10 or more miles (16+ km)
Ceiling: at least 12,000 feet AGL
Clouds: sky clear below 12,000 feet AGL
Present Weather: automated observation with no human augmentation;
there may or may not be significant weather present at this time
KISM 170456Z AUTO 36004KT 10SM CLR 12/11 A3029 RMK AO2 SLP261 T01220111 402220083

Conditions at: KISM observed 17 January 2018  03:56 UTC
Temperature: 12.8°C (55°F)
Dewpoint: 11.1°C (52°F) [RH = 89%]
Pressure (altimeter): 30.30 inches Hg (1026.2 mb)
[Sea-level pressure: 1026.3 mb]
Winds: from the NE (50 degrees) at 3 MPH (3 knots; 1.6 m/s)
Visibility: 10 or more miles (16+ km)
Ceiling: at least 12,000 feet AGL
Clouds: sky clear below 12,000 feet AGL
Present Weather: automated observation with no human augmentation;
there may or may not be significant weather present at this time
KISM 170356Z AUTO 05003KT 10SM CLR 13/11 A3030 RMK AO2 SLP263 T01280111

Conditions at: KISM observed 17 January 2018  01:56 UTC
Temperature: 14.4°C (58°F)
Dewpoint: 11.1°C (52°F) [RH = 81%]
Pressure (altimeter): 30.31 inches Hg (1026.5 mb)
[Sea-level pressure: 1026.8 mb]
Winds: from the NE (50 degrees) at 5 MPH (4 knots; 2.1 m/s)
Visibility: 10 or more miles (16+ km)
Ceiling: at least 12,000 feet AGL
Clouds: sky clear below 12,000 feet AGL
Present Weather: no significant weather observed at this time
KISM 170156Z 05004KT 10SM CLR 14/11 A3031 RMK AO2 SLP268 T01440111

Conditions at: KISM observed 17 January 2018  00:56 UTC
Temperature: 15.6°C (60°F)
Dewpoint: 11.1°C (52°F) [RH = 75%]
Pressure (altimeter): 30.31 inches Hg (1026.5 mb)
[Sea-level pressure: 1026.7 mb]
Winds: from the NE (50 degrees) at 8 MPH (7 knots; 3.6 m/s)
Visibility: 10 or more miles (16+ km)
Ceiling: at least 12,000 feet AGL
Clouds: sky clear below 12,000 feet AGL
Present Weather: no significant weather observed at this time
KISM 170056Z 05007KT 10SM CLR 16/11 A3031 RMK AO2 SLP267 T01560111

Conditions at: KISM observed 16 January 2018  23:56 UTC
Temperature: 17.2°C (63°F)
Dewpoint: 11.1°C (52°F) [RH = 67%]
Pressure (altimeter): 30.29 inches Hg (1025.8 mb)
[Sea-level pressure: 1026.1 mb]
Winds: from the ENE (60 degrees) at 7 MPH (6 knots; 3.1 m/s)
Visibility: 10 or more miles (16+ km)
Ceiling: at least 12,000 feet AGL
Clouds: few clouds at 6000 feet AGL
Present Weather: no significant weather observed at this time
KISM 162356Z 06006KT 10SM FEW060 17/11 A3029 RMK AO2 SLP261 T01720111 10222 20172 51005

Conditions at: KISM observed 16 January 2018  22:56 UTC
Temperature: 19.4°C (67°F)
Dewpoint: 9.4°C (49°F) [RH = 52%]
Pressure (altimeter): 30.29 inches Hg (1025.8 mb)
[Sea-level pressure: 1025.8 mb]
Winds: from the ENE (60 degrees) at 10 MPH (9 knots; 4.7 m/s)
Visibility: 10 or more miles (16+ km)
Ceiling: at least 12,000 feet AGL
Clouds: scattered clouds at 6000 feet AGL
Present Weather: no significant weather observed at this time
KISM 162256Z 06009KT 10SM SCT060 19/09 A3029 RMK AO2 SLP258 T01940094

Conditions at: KISM observed 16 January 2018  21:56 UTC
Temperature: 20.6°C (69°F)
Dewpoint: 8.9°C (48°F) [RH = 47%]
Pressure (altimeter): 30.29 inches Hg (1025.8 mb)
[Sea-level pressure: 1025.9 mb]
Winds: from the ENE (70 degrees) at 9 MPH (8 knots; 4.2 m/s)
Visibility: 10 or more miles (16+ km)
Ceiling: at least 12,000 feet AGL
Clouds: scattered clouds at 6000 feet AGL
Present Weather: no significant weather observed at this time
KISM 162156Z 07008KT 10SM SCT060 21/09 A3029 RMK AO2 SLP259 T02060089

Conditions at: KISM observed 16 January 2018  20:56 UTC
Temperature: 21.1°C (70°F)
Dewpoint: 6.7°C (44°F) [RH = 39%]
Pressure (altimeter): 30.28 inches Hg (1025.5 mb)
[Sea-level pressure: 1025.6 mb]
Winds: from the N (10 degrees) at 8 MPH (7 knots; 3.6 m/s)
Visibility: 10 or more miles (16+ km)
Ceiling: at least 12,000 feet AGL
Clouds: scattered clouds at 6000 feet AGL
Present Weather: no significant weather observed at this time
KISM 162056Z 01007KT 10SM SCT060 21/07 A3028 RMK AO2 SLP256 T02110067 56020

Conditions at: KISM observed 16 January 2018  19:56 UTC
Temperature: 21.1°C (70°F)
Dewpoint: 8.3°C (47°F) [RH = 44%]
Pressure (altimeter): 30.29 inches Hg (1025.8 mb)
[Sea-level pressure: 1025.9 mb]
Winds: variable direction winds at 5 MPH (4 knots; 2.1 m/s)
Visibility: 10 or more miles (16+ km)
Ceiling: 6000 feet AGL
Clouds: overcast cloud deck at 6000 feet AGL
Present Weather: no significant weather observed at this time
KISM 161956Z VRB04KT 10SM OVC060 21/08 A3029 RMK AO2 SLP259 T02110083

Conditions at: KISM observed 16 January 2018  18:56 UTC
Temperature: 21.7°C (71°F)
Dewpoint: 7.8°C (46°F) [RH = 41%]
Pressure (altimeter): 30.31 inches Hg (1026.5 mb)
[Sea-level pressure: 1026.5 mb]
Winds: variable direction winds at 3 MPH (3 knots; 1.6 m/s)
Visibility: 10 or more miles (16+ km)
Ceiling: 4800 feet AGL
Clouds: broken clouds at 4800 feet AGL
Present Weather: no significant weather observed at this time
KISM 161856Z VRB03KT 10SM BKN048 22/08 A3031 RMK AO2 SLP265 T02170078

Conditions at: KISM observed 16 January 2018  17:56 UTC
Temperature: 21.1°C (70°F)
Dewpoint: 8.3°C (47°F) [RH = 44%]
Pressure (altimeter): 30.34 inches Hg (1027.5 mb)
[Sea-level pressure: 1027.6 mb]
Winds: from the ENE (70 degrees) at 10 MPH (9 knots; 4.7 m/s)
Visibility: 10 or more miles (16+ km)
Ceiling: at least 12,000 feet AGL
Clouds: sky clear below 12,000 feet AGL
Present Weather: no significant weather observed at this time
KISM 161756Z 07009KT 10SM CLR 21/08 A3034 RMK AO2 SLP276 T02110083 10211 20089 58020

Conditions at: KISM observed 16 January 2018  16:56 UTC
Temperature: 20.6°C (69°F)
Dewpoint: 10.0°C (50°F) [RH = 51%]
Pressure (altimeter): 30.37 inches Hg (1028.5 mb)
[Sea-level pressure: 1028.5 mb]
Winds: from the ENE (70 degrees) at 9 MPH (8 knots; 4.2 m/s)
Visibility: 10 or more miles (16+ km)
Ceiling: at least 12,000 feet AGL
Clouds: sky clear below 12,000 feet AGL
Present Weather: no significant weather observed at this time
KISM 161656Z 07008KT 10SM CLR 21/10 A3037 RMK AO2 SLP285 T02060100

Conditions at: KISM observed 16 January 2018  15:56 UTC
Temperature: 18.9°C (66°F)
Dewpoint: 10.0°C (50°F) [RH = 56%]
Pressure (altimeter): 30.39 inches Hg (1029.2 mb)
[Sea-level pressure: 1029.4 mb]
Winds: from the NE (50 degrees) at 8 MPH (7 knots; 3.6 m/s)
Visibility: 10 or more miles (16+ km)
Ceiling: at least 12,000 feet AGL
Clouds: sky clear below 12,000 feet AGL
Present Weather: no significant weather observed at this time
KISM 161556Z 05007KT 10SM CLR 19/10 A3039 RMK AO2 SLP294 T01890100

Conditions at: KISM observed 16 January 2018  14:56 UTC
Temperature: 16.1°C (61°F)
Dewpoint: 10.0°C (50°F) [RH = 67%]
Pressure (altimeter): 30.40 inches Hg (1029.5 mb)
[Sea-level pressure: 1029.6 mb]
Winds: from the NE (40 degrees) at 6 MPH (5 knots; 2.6 m/s)
Visibility: 10 or more miles (16+ km)
Ceiling: at least 12,000 feet AGL
Clouds: sky clear below 12,000 feet AGL
Present Weather: no significant weather observed at this time
KISM 161456Z 04005KT 10SM CLR 16/10 A3040 RMK AO2 SLP296 T01610100 53010

Conditions at: KISM observed 16 January 2018  12:56 UTC
Temperature: 10.0°C (50°F)
Dewpoint: 7.8°C (46°F) [RH = 86%]
Pressure (altimeter): 30.37 inches Hg (1028.5 mb)
[Sea-level pressure: 1028.7 mb]
Winds: from the N (10 degrees) at 7 MPH (6 knots; 3.1 m/s)
Visibility: 10 or more miles (16+ km)
Ceiling: at least 12,000 feet AGL
Clouds: sky clear below 12,000 feet AGL
Present Weather: no significant weather observed at this time
KISM 161256Z 01006KT 10SM CLR 10/08 A3037 RMK AO2 SLP287 T01000078

Conditions at: KISM observed 16 January 2018  11:56 UTC
Temperature: 8.9°C (48°F)
Dewpoint: 7.8°C (46°F) [RH = 93%]
Pressure (altimeter): 30.36 inches Hg (1028.2 mb)
[Sea-level pressure: 1028.5 mb]
Winds: from the N (350 degrees) at 5 MPH (4 knots; 2.1 m/s)
Visibility: 10 or more miles (16+ km)
Ceiling: at least 12,000 feet AGL
Clouds: sky clear below 12,000 feet AGL
Present Weather: no significant weather observed at this time
KISM 161156Z 35004KT 10SM CLR 09/08 A3036 RMK AO2 SLP285 T00890078 10089 20083 53008

Conditions at: KISM observed 16 January 2018  10:56 UTC
Temperature: 8.9°C (48°F)
Dewpoint: 7.8°C (46°F) [RH = 93%]
Pressure (altimeter): 30.35 inches Hg (1027.9 mb)
[Sea-level pressure: 1028.1 mb]
Winds: from the N (360 degrees) at 5 MPH (4 knots; 2.1 m/s)
Visibility: 10 or more miles (16+ km)
Ceiling: at least 12,000 feet AGL
Clouds: sky clear below 12,000 feet AGL
Present Weather: automated observation with no human augmentation;
there may or may not be significant weather present at this time
KISM 161056Z AUTO 36004KT 10SM CLR 09/08 A3035 RMK AO2 SLP281 T00890078

Conditions at: KISM observed 16 January 2018  09:56 UTC
Temperature: 8.9°C (48°F)
Dewpoint: 7.2°C (45°F) [RH = 89%]
Pressure (altimeter): 30.34 inches Hg (1027.5 mb)
[Sea-level pressure: 1027.6 mb]
Winds: from the N (10 degrees) at 7 MPH (6 knots; 3.1 m/s)
Visibility: 10 or more miles (16+ km)
Ceiling: 7000 feet AGL
Clouds: broken clouds at 7000 feet AGL
Present Weather: automated observation with no human augmentation;
there may or may not be significant weather present at this time
KISM 160956Z AUTO 01006KT 10SM BKN070 09/07 A3034 RMK AO2 SLP276 T00890072

Conditions at: KISM observed 16 January 2018  08:56 UTC
Temperature: 8.9°C (48°F)
Dewpoint: 7.2°C (45°F) [RH = 89%]
Pressure (altimeter): 30.34 inches Hg (1027.5 mb)
[Sea-level pressure: 1027.7 mb]
Winds: from the N (360 degrees) at 6 MPH (5 knots; 2.6 m/s)
Visibility: 10 or more miles (16+ km)
Ceiling: 7000 feet AGL
Clouds: overcast cloud deck at 7000 feet AGL
Present Weather: automated observation with no human augmentation;
there may or may not be significant weather present at this time
KISM 160856Z AUTO 36005KT 10SM OVC070 09/07 A3034 RMK AO2 SLP277 T00890072 55007

Conditions at: KISM observed 16 January 2018  07:56 UTC
Temperature: 8.3°C (47°F)
Dewpoint: 6.7°C (44°F) [RH = 90%]
Pressure (altimeter): 30.34 inches Hg (1027.5 mb)
[Sea-level pressure: 1027.6 mb]
Winds: from the N (360 degrees) at 5 MPH (4 knots; 2.1 m/s)
Visibility: 10 or more miles (16+ km)
Ceiling: 6500 feet AGL
Clouds: broken clouds at 6500 feet AGL
Present Weather: automated observation with no human augmentation;
there may or may not be significant weather present at this time
KISM 160756Z AUTO 36004KT 10SM BKN065 08/07 A3034 RMK AO2 SLP276 T00830067

Conditions at: KISM observed 16 January 2018  06:56 UTC
Temperature: 8.3°C (47°F)
Dewpoint: 6.1°C (43°F) [RH = 86%]
Pressure (altimeter): 30.34 inches Hg (1027.5 mb)
[Sea-level pressure: 1027.8 mb]
Winds: from the N (360 degrees) at 6 MPH (5 knots; 2.6 m/s)
Visibility: 10 or more miles (16+ km)
Ceiling: at least 12,000 feet AGL
Clouds: sky clear below 12,000 feet AGL
Present Weather: automated observation with no human augmentation;
there may or may not be significant weather present at this time
KISM 160656Z AUTO 36005KT 10SM CLR 08/06 A3034 RMK AO2 SLP278 T00830061

Conditions at: KISM observed 16 January 2018  05:56 UTC
Temperature: 8.3°C (47°F)
Dewpoint: 5.6°C (42°F) [RH = 83%]
Pressure (altimeter): 30.36 inches Hg (1028.2 mb)
[Sea-level pressure: 1028.4 mb]
Winds: from the NNW (340 degrees) at 7 MPH (6 knots; 3.1 m/s)
Visibility: 10 or more miles (16+ km)
Ceiling: at least 12,000 feet AGL
Clouds: sky clear below 12,000 feet AGL
Present Weather: automated observation with no human augmentation;
there may or may not be significant weather present at this time
KISM 160556Z AUTO 34006KT 10SM CLR 08/06 A3036 RMK AO2 SLP284 T00830056 10122 20083 58008

Conditions at: KISM observed 16 January 2018  04:56 UTC
Temperature: 8.3°C (47°F)
Dewpoint: 5.6°C (42°F) [RH = 83%]
Pressure (altimeter): 30.37 inches Hg (1028.5 mb)
[Sea-level pressure: 1028.7 mb]
Winds: from the N (350 degrees) at 6 MPH (5 knots; 2.6 m/s)
Visibility: 10 or more miles (16+ km)
Ceiling: at least 12,000 feet AGL
Clouds: sky clear below 12,000 feet AGL
Present Weather: automated observation with no human augmentation;
there may or may not be significant weather present at this time
KISM 160456Z AUTO 35005KT 10SM CLR 08/06 A3037 RMK AO2 SLP287 T00830056 401890078

Conditions at: KISM observed 16 January 2018  03:56 UTC
Temperature: 9.4°C (49°F)
Dewpoint: 6.1°C (43°F) [RH = 80%]
Pressure (altimeter): 30.38 inches Hg (1028.9 mb)
[Sea-level pressure: 1029.0 mb]
Winds: from the N (10 degrees) at 7 MPH (6 knots; 3.1 m/s)
Visibility: 10 or more miles (16+ km)
Ceiling: at least 12,000 feet AGL
Clouds: sky clear below 12,000 feet AGL
Present Weather: automated observation with no human augmentation;
there may or may not be significant weather present at this time
KISM 160356Z AUTO 01006KT 10SM CLR 09/06 A3038 RMK AO2 SLP290 T00940061

Conditions at: KISM observed 16 January 2018  02:56 UTC
Temperature: 10.0°C (50°F)
Dewpoint: 6.1°C (43°F) [RH = 77%]
Pressure (altimeter): 30.39 inches Hg (1029.2 mb)
[Sea-level pressure: 1029.2 mb]
Winds: from the NNE (30 degrees) at 7 MPH (6 knots; 3.1 m/s)
Visibility: 10 or more miles (16+ km)
Ceiling: at least 12,000 feet AGL
Clouds: sky clear below 12,000 feet AGL
Present Weather: automated observation with no human augmentation;
there may or may not be significant weather present at this time
KISM 160256Z AUTO 03006KT 10SM CLR 10/06 A3039 RMK AO2 SLP292 T01000061 51006

Conditions at: KISM observed 16 January 2018  01:56 UTC
Temperature: 10.6°C (51°F)
Dewpoint: 6.1°C (43°F) [RH = 74%]
Pressure (altimeter): 30.38 inches Hg (1028.9 mb)
[Sea-level pressure: 1029.0 mb]
Winds: from the NNE (20 degrees) at 12 MPH (10 knots; 5.2 m/s)
gusting to 17 MPH (15 knots; 7.8 m/s)
Visibility: 10 or more miles (16+ km)
Ceiling: at least 12,000 feet AGL
Clouds: few clouds at 7000 feet AGL
Present Weather: no significant weather observed at this time
KISM 160156Z 02010G15KT 350V050 10SM FEW070 11/06 A3038 RMK AO2 SLP290 T01060061

Conditions at: KISM observed 16 January 2018  00:56 UTC
Temperature: 11.1°C (52°F)
Dewpoint: 6.7°C (44°F) [RH = 74%]
Pressure (altimeter): 30.38 inches Hg (1028.9 mb)
[Sea-level pressure: 1028.9 mb]
Winds: from the NNE (30 degrees) at 5 MPH (4 knots; 2.1 m/s)
Visibility: 10 or more miles (16+ km)
Ceiling: at least 12,000 feet AGL
Clouds: scattered clouds at 6500 feet AGL
Present Weather: no significant weather observed at this time
KISM 160056Z 03004KT 10SM SCT065 11/07 A3038 RMK AO2 SLP289 T01110067

Conditions at: KISM observed 15 January 2018  23:56 UTC
Temperature: 12.2°C (54°F)
Dewpoint: 5.6°C (42°F) [RH = 64%]
Pressure (altimeter): 30.37 inches Hg (1028.5 mb)
[Sea-level pressure: 1028.7 mb]
Winds: from the NE (40 degrees) at 8 MPH (7 knots; 3.6 m/s)
Visibility: 10 or more miles (16+ km)
Ceiling: at least 12,000 feet AGL
Clouds: few clouds at 7000 feet AGL
Present Weather: no significant weather observed at this time
KISM 152356Z 04007KT 10SM FEW070 12/06 A3037 RMK AO2 SLP287 T01220056 10189 20122 53019

Conditions at: KISM observed 15 January 2018  22:56 UTC
Temperature: 13.9°C (57°F)
Dewpoint: 6.1°C (43°F) [RH = 59%]
Pressure (altimeter): 30.35 inches Hg (1027.9 mb)
[Sea-level pressure: 1027.9 mb]
Winds: variable direction winds at 7 MPH (6 knots; 3.1 m/s)
Visibility: 10 or more miles (16+ km)
Ceiling: at least 12,000 feet AGL
Clouds: sky clear below 12,000 feet AGL
Present Weather: no significant weather observed at this time
KISM 152256Z VRB06KT 10SM CLR 14/06 A3035 RMK AO2 SLP279 T01390061